createdAt,value
2019-05-02T00:03:10.373Z,31.57
2019-05-02T00:07:19.885Z,36.60
2019-05-02T00:15:38.290Z,37.43
2019-05-02T00:19:49.398Z,36.73
2019-05-02T00:23:54.315Z,33.23
2019-05-02T00:28:02.366Z,32.30
2019-05-02T00:32:11.390Z,31.07
2019-05-02T00:36:17.944Z,35.93
2019-05-02T00:40:25.572Z,34.27
2019-05-02T00:44:34.002Z,34.87
2019-05-02T00:48:46.523Z,31.93
2019-05-02T00:52:52.987Z,30.07
2019-05-02T00:57:21.747Z,35.23
2019-05-02T01:01:40.081Z,33.13
2019-05-02T01:05:48.106Z,33.07
2019-05-02T01:09:54.976Z,33.93
2019-05-02T01:14:22.503Z,35.77
2019-05-02T01:18:30.886Z,37.07
2019-05-02T01:22:38.849Z,35.20
2019-05-02T01:26:59.807Z,36.10
2019-05-02T01:31:23.949Z,36.00
2019-05-02T01:35:40.582Z,33.40
2019-05-02T01:39:46.662Z,37.67
2019-05-02T01:43:54.940Z,37.03
2019-05-02T01:48:04.950Z,42.97
2019-05-02T01:52:13.387Z,46.23
2019-05-02T01:56:18.862Z,47.23
2019-05-02T02:00:26.222Z,45.57
2019-05-02T02:04:38.849Z,48.60
2019-05-02T02:08:49.101Z,55.30
2019-05-02T02:13:03.383Z,44.13
2019-05-02T02:17:10.070Z,51.93
2019-05-02T02:21:33.298Z,49.20
2019-05-02T02:25:48.480Z,51.63
2019-05-02T02:29:54.679Z,50.37
2019-05-02T02:34:01.542Z,48.30
2019-05-02T02:38:08.589Z,48.87
2019-05-02T02:42:15.493Z,50.33
2019-05-02T02:46:30.892Z,52.97
2019-05-02T02:50:43.109Z,55.30
2019-05-02T02:54:46.316Z,51.90
2019-05-02T03:08:49.342Z,54.80
2019-05-02T03:13:21.311Z,59.03
2019-05-02T03:27:40.266Z,59.17
2019-05-02T03:35:55.021Z,72.97
2019-05-02T03:40:02.518Z,58.57
2019-05-02T03:44:24.831Z,76.80
2019-05-02T03:48:25.839Z,71.23
2019-05-02T03:52:36.794Z,61.77
2019-05-02T04:10:59.546Z,62.80
2019-05-02T04:24:16.068Z,45.60
2019-05-02T04:32:59.486Z,52.70
2019-05-02T04:37:07.925Z,45.77
2019-05-02T04:50:40.841Z,44.77
2019-05-02T04:54:48.809Z,43.40
2019-05-02T04:58:54.643Z,49.47
2019-05-02T05:03:07.256Z,40.60
2019-05-02T05:07:11.757Z,42.67
2019-05-02T05:11:24.832Z,45.83
2019-05-02T05:15:38.297Z,39.60
2019-05-02T05:19:40.843Z,49.63
2019-05-02T05:24:03.824Z,46.90
2019-05-02T05:28:11.571Z,45.53
2019-05-02T05:32:17.937Z,49.07
2019-05-02T05:36:33.801Z,32.93
2019-05-02T05:40:37.499Z,35.27
2019-05-02T05:49:20.318Z,40.70
2019-05-02T05:53:24.902Z,34.13
2019-05-02T05:57:35.860Z,38.80
2019-05-02T06:01:41.527Z,29.60
2019-05-02T06:05:50.280Z,39.57
2019-05-02T06:09:56.420Z,34.70
2019-05-02T06:18:22.602Z,30.87
2019-05-02T06:22:29.534Z,38.87
2019-05-02T06:26:49.971Z,33.77
2019-05-02T06:40:22.999Z,34.33
2019-05-02T06:44:28.506Z,25.40
2019-05-02T06:48:36.422Z,29.07
2019-05-02T06:52:43.644Z,36.30
2019-05-02T06:56:53.418Z,20.13
2019-05-02T07:01:01.606Z,28.30
2019-05-02T07:05:07.448Z,25.50
2019-05-02T07:09:15.860Z,23.17
2019-05-02T07:13:22.644Z,26.23
2019-05-02T07:17:37.812Z,22.83
2019-05-02T07:21:46.204Z,26.57
2019-05-02T07:25:51.868Z,19.53
2019-05-02T07:30:01.269Z,17.90
2019-05-02T07:34:12.979Z,37.47
2019-05-02T07:38:31.005Z,24.90
2019-05-02T07:42:41.834Z,29.20
2019-05-02T07:46:52.300Z,20.10
2019-05-02T07:50:59.383Z,21.43
2019-05-02T07:55:09.823Z,22.77
2019-05-02T07:59:18.608Z,25.10
2019-05-02T08:03:29.281Z,22.53
2019-05-02T08:07:35.055Z,24.73
2019-05-02T08:11:42.519Z,22.90
2019-05-02T08:15:50.805Z,17.73
2019-05-02T08:20:05.792Z,29.13
2019-05-02T08:24:12.293Z,21.03
2019-05-02T08:28:30.687Z,19.57
2019-05-02T08:32:41.817Z,18.80
2019-05-02T08:36:52.529Z,26.33
2019-05-02T08:41:00.044Z,30.87
2019-05-02T08:45:06.405Z,19.47
2019-05-02T08:49:14.160Z,18.73
2019-05-02T08:53:22.346Z,24.97
2019-05-02T08:57:29.963Z,23.33
2019-05-02T09:01:35.681Z,22.87
2019-05-02T09:05:46.070Z,26.13
2019-05-02T09:09:55.619Z,21.17
2019-05-02T09:14:02.185Z,21.43
2019-05-02T09:18:09.883Z,25.00
2019-05-02T09:26:36.075Z,32.17
2019-05-02T09:30:38.357Z,23.63
2019-05-02T09:34:45.435Z,20.93
2019-05-02T09:39:12.283Z,26.37
2019-05-02T09:43:22.849Z,23.37
2019-05-02T09:47:47.005Z,25.97
2019-05-02T09:51:45.390Z,23.93
2019-05-02T09:55:55.762Z,23.57
2019-05-02T09:59:58.759Z,27.47
2019-05-02T10:04:12.007Z,25.77
2019-05-02T10:08:18.282Z,25.57
2019-05-02T10:12:32.654Z,30.57
2019-05-02T10:16:39.027Z,23.70
2019-05-02T10:20:45.174Z,24.23
2019-05-02T10:24:52.511Z,20.90
2019-05-02T11:17:32.378Z,27.40
2019-05-02T11:21:53.481Z,26.03
2019-05-02T11:25:52.706Z,32.83
2019-05-02T11:44:48.988Z,31.37
2019-05-02T11:48:58.405Z,21.37
2019-05-02T11:53:09.197Z,24.70
2019-05-02T11:57:11.752Z,20.00
2019-05-02T12:01:32.767Z,28.30
2019-05-02T12:05:35.842Z,30.60
2019-05-02T12:09:52.087Z,22.03
2019-05-02T12:13:56.990Z,25.80
2019-05-02T12:18:08.368Z,33.30
2019-05-02T12:22:16.926Z,17.90
2019-05-02T12:26:25.403Z,23.73
2019-05-02T12:30:34.245Z,20.97
2019-05-02T12:34:42.700Z,28.60
2019-05-02T12:38:48.148Z,21.10
2019-05-02T12:42:54.672Z,31.60
2019-05-02T12:47:02.622Z,31.27
2019-05-02T12:51:09.364Z,32.23
2019-05-02T12:55:22.149Z,25.70
2019-05-02T12:59:27.739Z,40.87
2019-05-02T13:07:55.468Z,35.77
2019-05-02T13:12:09.850Z,24.50
2019-05-02T13:16:15.619Z,28.63
2019-05-02T13:20:24.608Z,27.63
2019-05-02T13:24:39.348Z,24.00
2019-05-02T13:28:45.700Z,27.50
2019-05-02T13:32:57.915Z,23.90
2019-05-02T13:37:22.525Z,21.23
2019-05-02T13:41:31.960Z,15.43
2019-05-02T13:45:56.684Z,23.37
2019-05-02T13:50:03.864Z,18.63
2019-05-02T13:54:12.553Z,27.33
2019-05-02T13:58:29.117Z,26.87
2019-05-02T14:03:15.187Z,25.93
2019-05-02T14:07:21.780Z,28.40
2019-05-02T14:11:46.455Z,33.57
2019-05-02T14:15:55.665Z,25.13
2019-05-02T14:20:10.381Z,30.97
2019-05-02T14:24:11.846Z,29.57
2019-05-02T14:28:22.416Z,26.43
2019-05-02T14:32:32.922Z,27.40
2019-05-02T14:36:47.068Z,25.53
2019-05-02T14:41:12.455Z,27.13
2019-05-02T14:45:30.827Z,24.00
2019-05-02T14:49:32.292Z,29.67
2019-05-02T14:53:38.545Z,27.37
2019-05-02T14:57:47.567Z,26.23
2019-05-02T15:02:07.548Z,34.53
2019-05-02T15:15:33.609Z,22.63
2019-05-02T15:19:37.227Z,22.63
2019-05-02T15:23:54.279Z,26.90
2019-05-02T15:28:05.145Z,28.57
2019-05-02T15:32:32.470Z,24.63
2019-05-02T15:36:45.873Z,24.27
2019-05-02T15:45:44.025Z,19.73
2019-05-02T15:49:50.271Z,23.83
2019-05-02T15:54:06.005Z,27.03
2019-05-02T15:58:16.831Z,20.33
2019-05-02T16:02:26.439Z,28.37
2019-05-02T16:06:33.881Z,24.67
2019-05-02T16:10:42.846Z,25.87
2019-05-02T16:14:52.748Z,21.00
2019-05-02T16:18:58.605Z,20.47
2019-05-02T16:23:05.457Z,19.70
2019-05-02T16:27:16.625Z,17.13
2019-05-02T16:31:26.647Z,23.60
2019-05-02T16:35:34.783Z,22.47
2019-05-02T16:43:52.001Z,22.47
2019-05-02T16:48:00.170Z,20.47
2019-05-02T16:52:28.727Z,17.07
2019-05-02T16:56:36.965Z,12.90
2019-05-02T17:05:09.689Z,10.87
2019-05-02T17:09:28.698Z,10.13
2019-05-02T17:13:35.643Z,12.20
2019-05-02T17:17:48.131Z,10.47
2019-05-02T17:21:56.454Z,12.23
2019-05-02T17:26:01.613Z,12.63
2019-05-02T17:30:07.159Z,12.00
2019-05-02T17:34:16.219Z,12.17
2019-05-02T17:38:28.884Z,18.50
2019-05-02T17:42:35.839Z,11.03
2019-05-02T17:46:50.730Z,13.60
2019-05-02T17:51:15.159Z,13.13
2019-05-02T17:55:21.583Z,15.27
2019-05-02T17:59:36.037Z,20.00
2019-05-02T18:03:42.373Z,13.53
2019-05-02T18:07:48.193Z,13.77
2019-05-02T18:11:56.716Z,16.30
2019-05-02T18:16:02.847Z,19.27
2019-05-02T18:20:12.292Z,17.67
2019-05-02T18:24:17.673Z,16.63
2019-05-02T18:28:26.464Z,20.33
2019-05-02T18:32:30.775Z,23.37
2019-05-02T18:36:37.185Z,19.13
2019-05-02T18:40:44.829Z,15.03
2019-05-02T18:48:58.617Z,20.73
2019-05-02T18:53:05.285Z,16.83
2019-05-02T18:57:17.137Z,19.87
2019-05-02T19:01:24.071Z,19.03
2019-05-02T19:05:32.395Z,17.07
2019-05-02T19:09:48.422Z,20.47
2019-05-02T19:13:47.610Z,17.43
2019-05-02T19:17:53.090Z,19.77
2019-05-02T19:22:07.403Z,22.13
2019-05-02T19:26:15.958Z,19.97
2019-05-02T19:30:27.341Z,22.57
2019-05-02T19:34:35.998Z,18.67
2019-05-02T19:38:43.362Z,20.97
2019-05-02T19:42:49.168Z,18.80
2019-05-02T19:46:57.979Z,20.73
2019-05-02T19:51:18.292Z,18.73
2019-05-02T19:55:19.950Z,23.63
2019-05-02T19:59:29.603Z,20.20
2019-05-02T20:03:36.634Z,18.33
2019-05-02T20:07:43.548Z,19.10
2019-05-02T20:11:49.062Z,25.10
2019-05-02T20:16:31.923Z,27.80
2019-05-02T20:20:57.249Z,25.97
2019-05-02T20:25:03.905Z,24.10
2019-05-02T20:29:09.545Z,17.67
2019-05-02T20:33:16.442Z,24.20
2019-05-02T20:37:23.023Z,22.67
2019-05-02T20:41:29.823Z,24.27
2019-05-02T20:45:35.335Z,22.33
2019-05-02T20:49:43.902Z,26.87
2019-05-02T20:53:49.811Z,28.07
2019-05-02T20:57:55.520Z,24.83
2019-05-02T21:02:21.996Z,24.97
2019-05-02T21:11:04.295Z,24.30
2019-05-02T21:15:12.504Z,25.07
2019-05-02T21:19:18.879Z,25.37
2019-05-02T21:23:25.145Z,19.70
2019-05-02T21:27:32.503Z,24.03
2019-05-02T21:31:38.931Z,24.00
2019-05-02T21:35:46.276Z,23.90
2019-05-02T21:39:52.472Z,30.13
2019-05-02T21:43:59.587Z,29.27
2019-05-02T21:52:35.157Z,26.73
2019-05-02T21:56:49.050Z,28.73
2019-05-02T22:01:05.503Z,23.50
2019-05-02T22:05:16.099Z,21.83
2019-05-02T22:09:23.117Z,27.27
2019-05-02T22:13:31.563Z,27.13
2019-05-02T22:17:38.747Z,20.10
2019-05-02T22:21:44.205Z,24.43
2019-05-02T22:25:52.670Z,25.23
2019-05-02T22:30:01.942Z,23.93
2019-05-02T22:34:12.829Z,28.93
2019-05-02T22:38:37.366Z,31.03
2019-05-02T22:42:48.550Z,28.30
2019-05-02T22:46:54.572Z,35.40
2019-05-02T22:51:05.539Z,31.23
2019-05-02T22:55:13.193Z,26.23
2019-05-02T22:59:19.508Z,31.10
2019-05-02T23:03:25.875Z,31.10
2019-05-02T23:07:53.582Z,27.30
2019-05-02T23:11:59.248Z,27.67
2019-05-02T23:16:05.609Z,31.73
2019-05-02T23:20:34.592Z,28.47
2019-05-02T23:29:02.300Z,27.33
2019-05-02T23:33:09.320Z,28.27
2019-05-02T23:37:17.463Z,32.10
2019-05-02T23:41:25.634Z,32.10
2019-05-02T23:45:35.070Z,31.00
2019-05-02T23:49:42.707Z,31.73
2019-05-02T23:53:52.921Z,29.03
2019-05-02T23:58:03.291Z,32.13
